SAZT/TDL METAR and TAF weather

Enter ICAO airport designator
Station Type Date Time Source
SAZT METAR 2021/07/30 16:26 UTC NOAA

SAZT 301626Z 34016G26KT CAVOK 13/M03 Q1021


Station Type Date Time Source
SAZT Decoded METAR 2021/07/30 16:26 UTC NOAA

Tandil Aerodrome, Argentina (SAZT) 37-14S 059-15W 175M
Jul 30, 2021 - 12:26 PM EDT / 2021.07.30 1626 UTC
Wind: from the NNW (340 degrees) at 18 MPH (16 KT) gusting to 30 MPH (26 KT):0
Visibility: greater than 7 mile(s):0
Temperature: 55 F (13 C)
Dew Point: 26 F (-3 C)
Relative Humidity: 32%
Pressure (altimeter): 30.15 in. Hg (1021 hPa)
ob: SAZT 301626Z 34016G26KT CAVOK 13/M03 Q1021
cycle: 16

Station Type Date Time Source
SAZT TAF UTC NOAA

Error!

Example: see airport list